Scottville, Illinois
Current Conditions -  °F | °C
As of 12:35 AM on Thursday 27 Nov 2014 (Local Time) from KIJX Reporting Station
Overcast Overcast  
Wind Chill: 18°   Ceiling: 1000
Heat Index: 29°   Visibility: 7mi
Dew Point: 25°   Wind: 13mph
Humidity: 85%   Direction: 340°NNW
Pressure: 30.27"   Gusts: NA
Location:  39.48°N, 90.1°W
Report Text: KIJX 270635Z AUTO 34011KT 7SM OVC010 M02/M04 A3027 RMK AO2 T10181040
Loading
Personal Weather Stations






























Interactive Weather Map New forecast layout! Learn more

10-Day Weather Forecast

Advertisements
Track Severe Weather on mobile